Virtual Norwegian is not affiliated with Norwegian Air Shuttle in any way.
If you are looking for the real "Norwegian", or you wish to book Norwegian flights, please visit Norwegian.com


We use cookies to ensure you get the best experience on our website.   ACCEPT

EDDM - MUC - Munich (Franz Josef Strauss)

General Info Alternate Airport
ICAO: EDDM Elevation: 1487 ft ICAO: EDDN
IATA: MUC Country: Germany IATA: NUE
City: Munich Charts: Log in to view charts City: Nuernberg
Name: Franz Josef Strauss Hub: No Name Nurnberg
General Info
ICAO: EDDM
IATA: MUC
City: Munich
Name: Franz Josef Strauss
Elevation: 1487 ft
Country: Germany
Charts: Log in to view charts
Hub: No
 
Alternate Airport
ICAO: EDDN
IATA: NUE
City: Nuernberg
Name: Nurnberg

Weather
221750Z 20002KT 2900 BR FEW003 M14/M15 Q1023 R08L/290095 R08R/190094 NOSIG
Weather
221750Z 20002KT 2900 BR FEW003 M14/M15 Q1023 R08L/290095 R08R/190094 NOSIG

Runway Info
08L
Length ILS/LOC Course
4000 m 109.50 082
08R
Length ILS/LOC Course
4000 m 109.30 082
26L
Length ILS/LOC Course
4000 m 108.30 262
26R
Length ILS/LOC Course
4000 m 108.70 262

NOTAMs
NOTAMs currently unavailable.
NOTAMs
NOTAMs currently unavailable

Route map
Airport
Airport (hub)